sensor_id;sensor_type;location;lat;lon;timestamp;P1;durP1;ratioP1;P2;durP2;ratioP2
51020;SDS011;38907;45.562;8.856;2023-04-07T00:03:55;29.27;;;17.58;;
51020;SDS011;38907;45.562;8.856;2023-04-07T00:08:57;36.35;;;19.33;;
51020;SDS011;38907;45.562;8.856;2023-04-07T00:14:00;30.33;;;18.25;;
51020;SDS011;38907;45.562;8.856;2023-04-07T00:19:02;32.25;;;18.15;;
51020;SDS011;38907;45.562;8.856;2023-04-07T00:24:04;31.48;;;18.23;;
51020;SDS011;38907;45.562;8.856;2023-04-07T00:29:08;29.90;;;18.02;;
51020;SDS011;38907;45.562;8.856;2023-04-07T00:34:09;29.95;;;16.88;;
51020;SDS011;38907;45.562;8.856;2023-04-07T00:39:11;27.88;;;18.20;;
51020;SDS011;38907;45.562;8.856;2023-04-07T00:44:15;31.45;;;17.48;;
51020;SDS011;38907;45.562;8.856;2023-04-07T00:49:16;30.67;;;18.15;;
51020;SDS011;38907;45.562;8.856;2023-04-07T00:54:18;29.60;;;16.77;;
51020;SDS011;38907;45.562;8.856;2023-04-07T00:59:23;27.10;;;16.43;;
51020;SDS011;38907;45.562;8.856;2023-04-07T01:04:25;28.25;;;17.20;;
51020;SDS011;38907;45.562;8.856;2023-04-07T01:09:37;31.42;;;17.00;;
51020;SDS011;38907;45.562;8.856;2023-04-07T01:14:49;27.08;;;16.42;;
51020;SDS011;38907;45.562;8.856;2023-04-07T01:19:52;43.30;;;16.95;;
51020;SDS011;38907;45.562;8.856;2023-04-07T01:25:14;27.05;;;15.80;;
51020;SDS011;38907;45.562;8.856;2023-04-07T01:30:24;29.75;;;16.65;;
51020;SDS011;38907;45.562;8.856;2023-04-07T01:35:29;27.63;;;16.08;;
51020;SDS011;38907;45.562;8.856;2023-04-07T01:40:34;26.00;;;15.82;;
51020;SDS011;38907;45.562;8.856;2023-04-07T01:45:39;29.70;;;15.37;;
51020;SDS011;38907;45.562;8.856;2023-04-07T01:50:42;28.42;;;16.38;;
51020;SDS011;38907;45.562;8.856;2023-04-07T01:55:45;27.70;;;16.58;;
51020;SDS011;38907;45.562;8.856;2023-04-07T02:00:48;28.10;;;16.67;;
51020;SDS011;38907;45.562;8.856;2023-04-07T02:10:54;29.67;;;17.10;;
51020;SDS011;38907;45.562;8.856;2023-04-07T02:15:59;29.40;;;16.63;;
51020;SDS011;38907;45.562;8.856;2023-04-07T02:21:02;26.65;;;15.98;;
51020;SDS011;38907;45.562;8.856;2023-04-07T02:26:05;29.33;;;17.85;;
51020;SDS011;38907;45.562;8.856;2023-04-07T02:31:09;30.20;;;18.08;;
51020;SDS011;38907;45.562;8.856;2023-04-07T02:36:12;29.20;;;17.15;;
51020;SDS011;38907;45.562;8.856;2023-04-07T02:41:14;31.70;;;18.17;;
51020;SDS011;38907;45.562;8.856;2023-04-07T02:46:17;37.20;;;17.50;;
51020;SDS011;38907;45.562;8.856;2023-04-07T02:51:19;31.90;;;17.38;;
51020;SDS011;38907;45.562;8.856;2023-04-07T02:56:21;27.35;;;16.70;;
51020;SDS011;38907;45.562;8.856;2023-04-07T03:01:24;30.15;;;17.58;;
51020;SDS011;38907;45.562;8.856;2023-04-07T03:06:26;31.20;;;17.15;;
51020;SDS011;38907;45.562;8.856;2023-04-07T03:11:28;33.03;;;18.30;;
51020;SDS011;38907;45.562;8.856;2023-04-07T03:16:31;35.03;;;18.77;;
51020;SDS011;38907;45.562;8.856;2023-04-07T03:21:33;38.88;;;17.50;;
51020;SDS011;38907;45.562;8.856;2023-04-07T03:26:36;30.70;;;18.25;;
51020;SDS011;38907;45.562;8.856;2023-04-07T03:31:39;35.50;;;18.60;;
51020;SDS011;38907;45.562;8.856;2023-04-07T03:36:41;31.65;;;18.60;;
51020;SDS011;38907;45.562;8.856;2023-04-07T03:41:43;30.65;;;18.15;;
51020;SDS011;38907;45.562;8.856;2023-04-07T03:46:46;36.42;;;18.60;;
51020;SDS011;38907;45.562;8.856;2023-04-07T03:51:49;39.72;;;18.13;;
51020;SDS011;38907;45.562;8.856;2023-04-07T03:56:51;32.78;;;18.70;;
51020;SDS011;38907;45.562;8.856;2023-04-07T04:01:54;33.45;;;16.27;;
51020;SDS011;38907;45.562;8.856;2023-04-07T04:06:56;31.45;;;18.10;;
51020;SDS011;38907;45.562;8.856;2023-04-07T04:11:58;30.27;;;17.23;;
51020;SDS011;38907;45.562;8.856;2023-04-07T04:17:01;30.48;;;17.27;;
51020;SDS011;38907;45.562;8.856;2023-04-07T04:22:03;33.38;;;17.77;;
51020;SDS011;38907;45.562;8.856;2023-04-07T04:27:05;30.48;;;17.80;;
51020;SDS011;38907;45.562;8.856;2023-04-07T04:32:08;27.00;;;17.17;;
51020;SDS011;38907;45.562;8.856;2023-04-07T04:37:10;31.20;;;17.83;;
51020;SDS011;38907;45.562;8.856;2023-04-07T04:42:12;26.02;;;16.27;;
51020;SDS011;38907;45.562;8.856;2023-04-07T04:47:17;32.45;;;18.45;;
51020;SDS011;38907;45.562;8.856;2023-04-07T04:52:19;34.00;;;17.50;;
51020;SDS011;38907;45.562;8.856;2023-04-07T04:57:21;33.85;;;19.67;;
51020;SDS011;38907;45.562;8.856;2023-04-07T05:02:24;31.55;;;18.13;;
51020;SDS011;38907;45.562;8.856;2023-04-07T05:07:26;29.83;;;17.55;;
51020;SDS011;38907;45.562;8.856;2023-04-07T05:12:28;32.60;;;17.60;;
51020;SDS011;38907;45.562;8.856;2023-04-07T05:17:31;28.77;;;18.23;;
51020;SDS011;38907;45.562;8.856;2023-04-07T05:22:33;28.08;;;16.85;;
51020;SDS011;38907;45.562;8.856;2023-04-07T05:27:35;38.90;;;19.88;;
51020;SDS011;38907;45.562;8.856;2023-04-07T05:32:38;33.72;;;19.55;;
51020;SDS011;38907;45.562;8.856;2023-04-07T05:37:40;33.63;;;18.58;;
51020;SDS011;38907;45.562;8.856;2023-04-07T05:42:42;42.70;;;19.77;;
51020;SDS011;38907;45.562;8.856;2023-04-07T05:47:45;35.45;;;19.00;;
51020;SDS011;38907;45.562;8.856;2023-04-07T05:52:49;32.95;;;20.33;;
51020;SDS011;38907;45.562;8.856;2023-04-07T05:57:50;38.78;;;21.25;;
51020;SDS011;38907;45.562;8.856;2023-04-07T06:02:54;39.83;;;22.38;;
51020;SDS011;38907;45.562;8.856;2023-04-07T06:07:56;36.47;;;21.15;;
51020;SDS011;38907;45.562;8.856;2023-04-07T06:12:57;40.00;;;22.58;;
51020;SDS011;38907;45.562;8.856;2023-04-07T06:18:01;56.65;;;24.35;;
51020;SDS011;38907;45.562;8.856;2023-04-07T06:23:03;45.17;;;22.67;;
51020;SDS011;38907;45.562;8.856;2023-04-07T06:28:05;43.80;;;21.50;;
51020;SDS011;38907;45.562;8.856;2023-04-07T06:33:09;41.72;;;21.90;;
51020;SDS011;38907;45.562;8.856;2023-04-07T06:38:10;41.13;;;21.75;;
51020;SDS011;38907;45.562;8.856;2023-04-07T06:43:12;44.45;;;21.48;;
51020;SDS011;38907;45.562;8.856;2023-04-07T06:48:16;35.53;;;20.55;;
51020;SDS011;38907;45.562;8.856;2023-04-07T06:53:18;37.85;;;20.52;;
51020;SDS011;38907;45.562;8.856;2023-04-07T06:58:20;46.78;;;21.55;;
51020;SDS011;38907;45.562;8.856;2023-04-07T07:03:23;36.75;;;21.75;;
51020;SDS011;38907;45.562;8.856;2023-04-07T07:08:26;49.58;;;22.48;;
51020;SDS011;38907;45.562;8.856;2023-04-07T07:13:29;43.72;;;22.35;;
51020;SDS011;38907;45.562;8.856;2023-04-07T07:18:33;46.40;;;22.25;;
51020;SDS011;38907;45.562;8.856;2023-04-07T07:23:35;31.73;;;20.27;;
51020;SDS011;38907;45.562;8.856;2023-04-07T07:28:37;37.85;;;20.63;;
51020;SDS011;38907;45.562;8.856;2023-04-07T07:33:41;37.90;;;19.40;;
51020;SDS011;38907;45.562;8.856;2023-04-07T07:38:44;30.00;;;19.65;;
51020;SDS011;38907;45.562;8.856;2023-04-07T07:43:46;35.70;;;19.70;;
51020;SDS011;38907;45.562;8.856;2023-04-07T07:48:49;28.88;;;18.55;;
51020;SDS011;38907;45.562;8.856;2023-04-07T07:53:51;30.92;;;19.25;;
51020;SDS011;38907;45.562;8.856;2023-04-07T07:58:53;31.48;;;18.73;;
51020;SDS011;38907;45.562;8.856;2023-04-07T08:03:57;36.88;;;19.50;;
51020;SDS011;38907;45.562;8.856;2023-04-07T08:08:59;34.40;;;20.15;;
51020;SDS011;38907;45.562;8.856;2023-04-07T08:14:01;35.15;;;21.33;;
51020;SDS011;38907;45.562;8.856;2023-04-07T08:19:04;32.90;;;21.38;;
51020;SDS011;38907;45.562;8.856;2023-04-07T08:24:07;36.17;;;20.50;;
51020;SDS011;38907;45.562;8.856;2023-04-07T08:29:10;35.03;;;19.35;;
51020;SDS011;38907;45.562;8.856;2023-04-07T08:34:13;30.27;;;20.35;;
51020;SDS011;38907;45.562;8.856;2023-04-07T08:39:15;37.22;;;21.25;;
51020;SDS011;38907;45.562;8.856;2023-04-07T08:44:17;31.23;;;18.75;;
51020;SDS011;38907;45.562;8.856;2023-04-07T08:49:23;31.85;;;19.63;;
51020;SDS011;38907;45.562;8.856;2023-04-07T08:54:28;26.83;;;18.65;;
51020;SDS011;38907;45.562;8.856;2023-04-07T08:59:32;28.35;;;19.17;;
51020;SDS011;38907;45.562;8.856;2023-04-07T09:04:37;27.58;;;17.85;;
51020;SDS011;38907;45.562;8.856;2023-04-07T09:14:41;23.17;;;13.88;;
51020;SDS011;38907;45.562;8.856;2023-04-07T09:19:44;22.52;;;13.75;;
51020;SDS011;38907;45.562;8.856;2023-04-07T09:24:47;23.30;;;13.98;;
51020;SDS011;38907;45.562;8.856;2023-04-07T09:29:51;19.08;;;12.30;;
51020;SDS011;38907;45.562;8.856;2023-04-07T09:35:13;19.05;;;13.32;;
51020;SDS011;38907;45.562;8.856;2023-04-07T09:40:16;19.50;;;13.77;;
51020;SDS011;38907;45.562;8.856;2023-04-07T09:45:28;19.90;;;13.82;;
51020;SDS011;38907;45.562;8.856;2023-04-07T09:50:39;22.65;;;13.85;;
51020;SDS011;38907;45.562;8.856;2023-04-07T09:55:45;23.45;;;12.80;;
51020;SDS011;38907;45.562;8.856;2023-04-07T10:00:47;24.50;;;14.18;;
51020;SDS011;38907;45.562;8.856;2023-04-07T10:05:51;20.40;;;12.75;;
51020;SDS011;38907;45.562;8.856;2023-04-07T10:10:53;19.85;;;12.55;;
51020;SDS011;38907;45.562;8.856;2023-04-07T10:15:57;18.40;;;12.30;;
51020;SDS011;38907;45.562;8.856;2023-04-07T10:21:01;22.90;;;13.15;;
51020;SDS011;38907;45.562;8.856;2023-04-07T10:26:04;20.05;;;13.68;;
51020;SDS011;38907;45.562;8.856;2023-04-07T10:31:07;26.65;;;13.40;;
51020;SDS011;38907;45.562;8.856;2023-04-07T10:36:12;30.08;;;12.13;;
51020;SDS011;38907;45.562;8.856;2023-04-07T10:41:32;19.42;;;13.10;;
51020;SDS011;38907;45.562;8.856;2023-04-07T10:52:24;18.45;;;12.95;;
51020;SDS011;38907;45.562;8.856;2023-04-07T10:57:26;18.58;;;12.93;;
51020;SDS011;38907;45.562;8.856;2023-04-07T11:02:31;19.20;;;12.57;;
51020;SDS011;38907;45.562;8.856;2023-04-07T11:07:48;18.23;;;12.45;;
51020;SDS011;38907;45.562;8.856;2023-04-07T11:13:00;18.77;;;12.80;;
51020;SDS011;38907;45.562;8.856;2023-04-07T11:18:14;16.42;;;11.35;;
51020;SDS011;38907;45.562;8.856;2023-04-07T11:23:19;14.23;;;11.68;;
51020;SDS011;38907;45.562;8.856;2023-04-07T11:28:24;18.95;;;11.73;;
51020;SDS011;38907;45.562;8.856;2023-04-07T11:33:27;19.23;;;11.68;;
51020;SDS011;38907;45.562;8.856;2023-04-07T11:38:35;14.63;;;10.18;;
51020;SDS011;38907;45.562;8.856;2023-04-07T11:43:38;14.52;;;10.20;;
51020;SDS011;38907;45.562;8.856;2023-04-07T11:48:41;13.57;;;9.73;;
51020;SDS011;38907;45.562;8.856;2023-04-07T11:58:47;10.93;;;7.50;;
51020;SDS011;38907;45.562;8.856;2023-04-07T12:03:56;16.88;;;8.25;;
51020;SDS011;38907;45.562;8.856;2023-04-07T12:09:02;13.68;;;8.38;;
51020;SDS011;38907;45.562;8.856;2023-04-07T12:14:05;11.43;;;7.57;;
51020;SDS011;38907;45.562;8.856;2023-04-07T12:19:08;12.57;;;8.82;;
51020;SDS011;38907;45.562;8.856;2023-04-07T12:24:11;9.63;;;7.22;;
51020;SDS011;38907;45.562;8.856;2023-04-07T12:29:13;21.67;;;8.63;;
51020;SDS011;38907;45.562;8.856;2023-04-07T12:34:16;14.68;;;7.85;;
51020;SDS011;38907;45.562;8.856;2023-04-07T12:39:19;21.40;;;8.80;;
51020;SDS011;38907;45.562;8.856;2023-04-07T12:49:23;13.15;;;8.68;;
51020;SDS011;38907;45.562;8.856;2023-04-07T12:54:27;16.33;;;9.07;;
51020;SDS011;38907;45.562;8.856;2023-04-07T12:59:29;13.52;;;8.32;;
51020;SDS011;38907;45.562;8.856;2023-04-07T13:04:32;13.57;;;8.93;;
51020;SDS011;38907;45.562;8.856;2023-04-07T13:09:37;14.77;;;8.40;;
51020;SDS011;38907;45.562;8.856;2023-04-07T13:14:39;14.93;;;9.85;;
51020;SDS011;38907;45.562;8.856;2023-04-07T13:19:42;13.07;;;8.65;;
51020;SDS011;38907;45.562;8.856;2023-04-07T13:24:47;12.60;;;8.27;;
51020;SDS011;38907;45.562;8.856;2023-04-07T13:34:50;12.98;;;7.93;;
51020;SDS011;38907;45.562;8.856;2023-04-07T13:39:54;12.52;;;8.50;;
51020;SDS011;38907;45.562;8.856;2023-04-07T13:44:56;12.07;;;7.60;;
51020;SDS011;38907;45.562;8.856;2023-04-07T13:49:58;10.43;;;7.45;;
51020;SDS011;38907;45.562;8.856;2023-04-07T13:55:03;20.30;;;6.85;;
51020;SDS011;38907;45.562;8.856;2023-04-07T14:00:06;11.23;;;6.85;;
51020;SDS011;38907;45.562;8.856;2023-04-07T14:05:09;11.10;;;8.15;;
51020;SDS011;38907;45.562;8.856;2023-04-07T14:10:13;10.43;;;8.45;;
51020;SDS011;38907;45.562;8.856;2023-04-07T14:20:17;13.02;;;9.32;;
51020;SDS011;38907;45.562;8.856;2023-04-07T14:25:21;24.23;;;10.32;;
51020;SDS011;38907;45.562;8.856;2023-04-07T14:30:23;12.98;;;9.65;;
51020;SDS011;38907;45.562;8.856;2023-04-07T14:35:25;13.10;;;8.90;;
51020;SDS011;38907;45.562;8.856;2023-04-07T14:40:28;10.95;;;8.02;;
51020;SDS011;38907;45.562;8.856;2023-04-07T14:45:31;10.80;;;7.72;;
51020;SDS011;38907;45.562;8.856;2023-04-07T14:55:37;12.68;;;7.80;;
51020;SDS011;38907;45.562;8.856;2023-04-07T15:00:41;11.38;;;8.15;;
51020;SDS011;38907;45.562;8.856;2023-04-07T15:05:43;15.55;;;7.72;;
51020;SDS011;38907;45.562;8.856;2023-04-07T15:10:46;13.38;;;8.73;;
51020;SDS011;38907;45.562;8.856;2023-04-07T15:15:48;13.45;;;9.00;;
51020;SDS011;38907;45.562;8.856;2023-04-07T15:20:50;12.30;;;8.52;;
51020;SDS011;38907;45.562;8.856;2023-04-07T15:25:53;13.02;;;9.52;;
51020;SDS011;38907;45.562;8.856;2023-04-07T15:30:56;13.88;;;9.48;;
51020;SDS011;38907;45.562;8.856;2023-04-07T15:35:58;15.07;;;9.68;;
51020;SDS011;38907;45.562;8.856;2023-04-07T15:41:02;20.92;;;10.93;;
51020;SDS011;38907;45.562;8.856;2023-04-07T15:46:04;14.68;;;10.18;;
51020;SDS011;38907;45.562;8.856;2023-04-07T15:51:06;20.45;;;12.70;;
51020;SDS011;38907;45.562;8.856;2023-04-07T15:56:10;16.70;;;11.00;;
51020;SDS011;38907;45.562;8.856;2023-04-07T16:06:13;18.60;;;12.88;;
51020;SDS011;38907;45.562;8.856;2023-04-07T16:11:17;16.70;;;11.82;;
51020;SDS011;38907;45.562;8.856;2023-04-07T16:16:18;18.95;;;11.98;;
51020;SDS011;38907;45.562;8.856;2023-04-07T16:21:20;18.75;;;12.50;;
51020;SDS011;38907;45.562;8.856;2023-04-07T16:26:23;21.13;;;12.60;;
51020;SDS011;38907;45.562;8.856;2023-04-07T16:31:26;20.20;;;13.40;;
51020;SDS011;38907;45.562;8.856;2023-04-07T16:36:27;17.30;;;11.93;;
51020;SDS011;38907;45.562;8.856;2023-04-07T16:41:31;20.52;;;12.07;;
51020;SDS011;38907;45.562;8.856;2023-04-07T16:46:33;19.58;;;12.02;;
51020;SDS011;38907;45.562;8.856;2023-04-07T16:51:35;19.58;;;13.15;;
51020;SDS011;38907;45.562;8.856;2023-04-07T16:56:38;20.50;;;12.32;;
51020;SDS011;38907;45.562;8.856;2023-04-07T17:01:41;15.73;;;11.63;;
51020;SDS011;38907;45.562;8.856;2023-04-07T17:06:43;22.40;;;12.70;;
51020;SDS011;38907;45.562;8.856;2023-04-07T17:11:47;17.08;;;12.38;;
51020;SDS011;38907;45.562;8.856;2023-04-07T17:16:49;19.48;;;12.07;;
51020;SDS011;38907;45.562;8.856;2023-04-07T17:21:51;19.70;;;12.52;;
51020;SDS011;38907;45.562;8.856;2023-04-07T17:26:55;19.20;;;12.48;;
51020;SDS011;38907;45.562;8.856;2023-04-07T17:31:57;21.10;;;13.00;;
51020;SDS011;38907;45.562;8.856;2023-04-07T17:36:59;30.40;;;16.83;;
51020;SDS011;38907;45.562;8.856;2023-04-07T17:42:02;22.92;;;15.25;;
51020;SDS011;38907;45.562;8.856;2023-04-07T17:47:04;23.80;;;13.98;;
51020;SDS011;38907;45.562;8.856;2023-04-07T17:52:06;22.42;;;15.07;;
51020;SDS011;38907;45.562;8.856;2023-04-07T17:57:09;17.77;;;13.18;;
51020;SDS011;38907;45.562;8.856;2023-04-07T18:02:13;19.25;;;12.93;;
51020;SDS011;38907;45.562;8.856;2023-04-07T18:07:15;17.45;;;12.50;;
51020;SDS011;38907;45.562;8.856;2023-04-07T18:12:18;23.48;;;12.90;;
51020;SDS011;38907;45.562;8.856;2023-04-07T18:17:20;22.15;;;12.68;;
51020;SDS011;38907;45.562;8.856;2023-04-07T18:22:22;26.92;;;12.82;;
51020;SDS011;38907;45.562;8.856;2023-04-07T18:27:25;23.55;;;12.55;;
51020;SDS011;38907;45.562;8.856;2023-04-07T18:32:27;30.85;;;13.43;;
51020;SDS011;38907;45.562;8.856;2023-04-07T18:37:29;23.40;;;12.57;;
51020;SDS011;38907;45.562;8.856;2023-04-07T18:42:33;21.52;;;13.82;;
51020;SDS011;38907;45.562;8.856;2023-04-07T18:57:43;26.73;;;13.95;;
51020;SDS011;38907;45.562;8.856;2023-04-07T19:02:45;19.98;;;13.70;;
51020;SDS011;38907;45.562;8.856;2023-04-07T19:07:49;19.65;;;14.02;;
51020;SDS011;38907;45.562;8.856;2023-04-07T19:12:53;24.55;;;14.63;;
51020;SDS011;38907;45.562;8.856;2023-04-07T19:17:55;23.48;;;15.77;;
51020;SDS011;38907;45.562;8.856;2023-04-07T19:22:58;21.60;;;14.88;;
51020;SDS011;38907;45.562;8.856;2023-04-07T19:28:03;25.42;;;14.55;;
51020;SDS011;38907;45.562;8.856;2023-04-07T19:33:06;25.92;;;16.02;;
51020;SDS011;38907;45.562;8.856;2023-04-07T19:38:09;26.63;;;15.27;;
51020;SDS011;38907;45.562;8.856;2023-04-07T19:43:12;22.45;;;15.05;;
51020;SDS011;38907;45.562;8.856;2023-04-07T19:48:17;23.05;;;16.15;;
51020;SDS011;38907;45.562;8.856;2023-04-07T19:53:19;26.35;;;15.65;;
51020;SDS011;38907;45.562;8.856;2023-04-07T19:58:26;24.00;;;15.93;;
51020;SDS011;38907;45.562;8.856;2023-04-07T20:03:29;28.02;;;15.85;;
51020;SDS011;38907;45.562;8.856;2023-04-07T20:08:32;26.95;;;15.90;;
51020;SDS011;38907;45.562;8.856;2023-04-07T20:13:36;23.70;;;16.42;;
51020;SDS011;38907;45.562;8.856;2023-04-07T20:18:38;30.45;;;19.70;;
51020;SDS011;38907;45.562;8.856;2023-04-07T20:23:41;26.70;;;17.85;;
51020;SDS011;38907;45.562;8.856;2023-04-07T20:28:44;26.77;;;17.95;;
51020;SDS011;38907;45.562;8.856;2023-04-07T20:33:46;30.95;;;18.52;;
51020;SDS011;38907;45.562;8.856;2023-04-07T20:38:48;31.35;;;18.00;;
51020;SDS011;38907;45.562;8.856;2023-04-07T20:43:51;38.75;;;23.05;;
51020;SDS011;38907;45.562;8.856;2023-04-07T20:48:55;39.38;;;24.42;;
51020;SDS011;38907;45.562;8.856;2023-04-07T20:53:57;38.03;;;22.85;;
51020;SDS011;38907;45.562;8.856;2023-04-07T20:59:00;36.78;;;22.38;;
51020;SDS011;38907;45.562;8.856;2023-04-07T21:04:02;35.42;;;23.02;;
51020;SDS011;38907;45.562;8.856;2023-04-07T21:09:04;36.97;;;23.27;;
51020;SDS011;38907;45.562;8.856;2023-04-07T21:14:09;36.10;;;22.93;;
51020;SDS011;38907;45.562;8.856;2023-04-07T21:19:11;39.50;;;22.80;;
51020;SDS011;38907;45.562;8.856;2023-04-07T21:24:13;33.45;;;21.00;;
51020;SDS011;38907;45.562;8.856;2023-04-07T21:29:16;33.75;;;21.25;;
51020;SDS011;38907;45.562;8.856;2023-04-07T21:34:18;36.60;;;21.20;;
51020;SDS011;38907;45.562;8.856;2023-04-07T21:39:20;36.85;;;22.83;;
51020;SDS011;38907;45.562;8.856;2023-04-07T21:44:23;55.38;;;23.23;;
51020;SDS011;38907;45.562;8.856;2023-04-07T21:49:26;35.80;;;22.00;;
51020;SDS011;38907;45.562;8.856;2023-04-07T21:54:28;37.15;;;21.05;;
51020;SDS011;38907;45.562;8.856;2023-04-07T21:59:31;35.13;;;23.17;;
51020;SDS011;38907;45.562;8.856;2023-04-07T22:04:34;39.78;;;22.48;;
51020;SDS011;38907;45.562;8.856;2023-04-07T22:09:36;41.75;;;22.15;;
51020;SDS011;38907;45.562;8.856;2023-04-07T22:14:39;32.70;;;22.63;;
51020;SDS011;38907;45.562;8.856;2023-04-07T22:19:41;33.17;;;22.83;;
51020;SDS011;38907;45.562;8.856;2023-04-07T22:24:43;40.05;;;24.63;;
51020;SDS011;38907;45.562;8.856;2023-04-07T22:29:46;36.53;;;24.05;;
51020;SDS011;38907;45.562;8.856;2023-04-07T22:34:48;38.13;;;24.63;;
51020;SDS011;38907;45.562;8.856;2023-04-07T22:39:50;39.50;;;25.17;;
51020;SDS011;38907;45.562;8.856;2023-04-07T22:44:53;41.17;;;24.88;;
51020;SDS011;38907;45.562;8.856;2023-04-07T22:49:55;41.05;;;24.40;;
51020;SDS011;38907;45.562;8.856;2023-04-07T22:54:57;41.30;;;25.67;;
51020;SDS011;38907;45.562;8.856;2023-04-07T23:00:00;34.60;;;23.75;;
51020;SDS011;38907;45.562;8.856;2023-04-07T23:05:02;43.83;;;25.92;;
51020;SDS011;38907;45.562;8.856;2023-04-07T23:10:07;35.40;;;24.55;;
51020;SDS011;38907;45.562;8.856;2023-04-07T23:15:11;36.35;;;22.58;;
51020;SDS011;38907;45.562;8.856;2023-04-07T23:20:13;40.03;;;24.38;;
51020;SDS011;38907;45.562;8.856;2023-04-07T23:25:14;34.60;;;23.60;;
51020;SDS011;38907;45.562;8.856;2023-04-07T23:30:18;37.75;;;23.15;;
51020;SDS011;38907;45.562;8.856;2023-04-07T23:35:20;37.10;;;24.35;;
51020;SDS011;38907;45.562;8.856;2023-04-07T23:40:22;37.08;;;25.20;;
51020;SDS011;38907;45.562;8.856;2023-04-07T23:45:25;43.53;;;25.90;;
51020;SDS011;38907;45.562;8.856;2023-04-07T23:50:27;40.85;;;26.25;;
51020;SDS011;38907;45.562;8.856;2023-04-07T23:55:29;39.33;;;25.40;;
